Time;durP1;ratioP1;P1;durP2;ratioP2;P2;SDS_P1;SDS_P2;PMS_P1;PMS_P2;Temp;Humidity;BMP_temperature;BMP_pressure;BME280_temperature;BME280_humidity;BME280_pressure;Samples;Min_cycle;Max_cycle;Signal;HPM_P1;HPM_P2
2022/04/22 00:01:29;;;;;;;9.73;7.80;;;;;;;13.09;53.19;100771.34;5031232;28;20049;-63
2022/04/22 00:03:56;;;;;;;8.00;7.20;;;;;;;13.07;53.10;100770.63;5030739;28;20096;-63
2022/04/22 00:06:22;;;;;;;10.93;7.63;;;;;;;13.06;53.25;100774.25;5046897;28;20438;-63
2022/04/22 00:08:48;;;;;;;9.52;8.65;;;;;;;12.94;53.38;100768.00;5030521;28;20275;-63
2022/04/22 00:11:31;;;;;;;10.27;8.07;;;;;;;12.92;53.57;100767.28;5030640;28;20123;-63
2022/04/22 00:13:59;;;;;;;9.55;8.27;;;;;;;12.88;53.75;100768.47;5049610;28;20056;-63
2022/04/22 00:16:27;;;;;;;10.65;8.18;;;;;;;12.80;53.96;100757.50;5031315;28;20051;-63
2022/04/22 00:18:52;;;;;;;10.35;8.38;;;;;;;12.88;53.98;100767.59;5045853;28;20080;-63
2022/04/22 00:21:18;;;;;;;11.07;8.63;;;;;;;12.85;54.13;100762.47;5031042;28;20042;-63
2022/04/22 00:23:44;;;;;;;10.63;8.20;;;;;;;12.83;54.64;100764.44;5029956;28;20063;-63
2022/04/22 00:26:10;;;;;;;9.65;8.27;;;;;;;12.84;54.43;100766.97;5047627;28;20025;-63
2022/04/22 00:28:36;;;;;;;9.73;8.73;;;;;;;12.79;54.71;100769.13;5039284;28;20053;-63
2022/04/22 00:31:01;;;;;;;13.23;8.43;;;;;;;12.85;54.80;100762.47;5048291;28;20104;-63
2022/04/22 00:33:27;;;;;;;11.50;9.25;;;;;;;12.63;55.43;100757.88;5028985;28;20489;-63
2022/04/22 00:35:53;;;;;;;11.30;8.90;;;;;;;12.67;55.08;100749.53;5031407;28;20040;-63
2022/04/22 00:38:18;;;;;;;10.25;9.13;;;;;;;12.56;55.76;100752.16;5029615;28;20354;-63
2022/04/22 00:40:46;;;;;;;14.93;8.98;;;;;;;12.54;55.75;100754.06;5045804;28;20045;-63
2022/04/22 00:43:21;;;;;;;9.60;8.57;;;;;;;12.44;56.01;100748.56;5027817;28;20129;-63
2022/04/22 00:45:47;;;;;;;10.43;9.10;;;;;;;12.54;55.47;100750.56;5030028;28;20030;-63
2022/04/22 00:48:17;;;;;;;12.10;9.18;;;;;;;12.42;56.37;100734.47;5045543;28;20081;-63
2022/04/22 00:50:46;;;;;;;10.85;9.23;;;;;;;12.45;56.02;100741.41;5030756;28;20095;-63
2022/04/22 00:53:12;;;;;;;14.95;9.63;;;;;;;12.45;56.36;100738.75;5029734;28;20065;-63
2022/04/22 00:55:42;;;;;;;10.65;9.38;;;;;;;12.50;56.10;100737.44;5029381;28;20021;-63
2022/04/22 00:58:09;;;;;;;11.70;8.75;;;;;;;12.40;56.86;100730.22;5029598;28;20473;-63
2022/04/22 01:00:35;;;;;;;12.70;9.20;;;;;;;12.46;56.79;100733.28;5036468;28;20481;-63
2022/04/22 01:03:03;;;;;;;12.32;9.15;;;;;;;12.43;56.63;100735.31;5053216;28;20492;-63
2022/04/22 01:10:57;;;;;;;11.05;9.82;;;;;;;12.22;57.46;100724.41;5046407;28;20475;-63
2022/04/22 01:13:24;;;;;;;12.25;9.82;;;;;;;12.04;57.86;100721.25;5037232;28;20053;-63
2022/04/22 01:15:51;;;;;;;13.00;9.75;;;;;;;12.17;57.48;100721.19;5033540;28;20051;-63
2022/04/22 01:18:17;;;;;;;11.07;9.05;;;;;;;12.03;57.81;100719.53;5035162;28;20026;-63
2022/04/22 01:20:43;;;;;;;11.95;9.75;;;;;;;12.02;58.00;100720.50;5048261;28;20035;-63
2022/04/22 01:23:08;;;;;;;13.18;9.77;;;;;;;12.00;58.17;100720.63;5034694;28;20469;-63
2022/04/22 01:25:34;;;;;;;13.77;9.35;;;;;;;11.93;58.66;100718.47;5034835;28;20029;-63
2022/04/22 01:28:01;;;;;;;13.32;9.80;;;;;;;11.90;58.84;100713.38;5033212;28;20494;-63
2022/04/22 01:30:26;;;;;;;11.95;10.00;;;;;;;12.01;58.71;100713.47;5049187;28;20068;-63
2022/04/22 01:32:56;;;;;;;12.63;9.48;;;;;;;12.08;58.83;100711.19;5032239;28;20100;-63
2022/04/22 01:35:22;;;;;;;12.40;9.48;;;;;;;11.95;59.18;100704.09;5032439;28;20065;-63
2022/04/22 01:37:49;;;;;;;12.23;10.50;;;;;;;11.91;59.37;100704.41;5033862;28;20032;-63
2022/04/22 01:40:17;;;;;;;12.18;9.75;;;;;;;11.99;58.86;100702.03;5051365;28;20029;-63
2022/04/22 01:42:43;;;;;;;10.98;9.82;;;;;;;11.91;59.31;100704.41;5032933;28;20037;-63
2022/04/22 01:45:10;;;;;;;13.77;10.20;;;;;;;11.96;59.42;100695.13;5032496;28;20029;-63
2022/04/22 01:47:36;;;;;;;13.48;10.32;;;;;;;11.97;59.37;100702.19;5032428;28;20036;-63
2022/04/22 01:50:02;;;;;;;13.02;10.70;;;;;;;11.90;59.36;100706.22;5051289;28;20041;-63
2022/04/22 01:52:28;;;;;;;14.82;10.50;;;;;;;11.93;59.36;100708.66;5035870;28;20477;-63
2022/04/22 01:54:56;;;;;;;13.35;10.18;;;;;;;11.88;59.67;100707.28;5048030;28;20040;-63
2022/04/22 01:57:22;;;;;;;15.82;11.50;;;;;;;11.79;60.16;100704.31;5032174;28;20044;-63
2022/04/22 01:59:49;;;;;;;13.30;11.15;;;;;;;11.78;59.78;100707.06;5033793;28;20032;-63
2022/04/22 02:02:15;;;;;;;12.70;11.13;;;;;;;11.73;60.09;100714.50;5032634;28;20103;-63
2022/04/22 02:04:41;;;;;;;12.60;10.65;;;;;;;11.78;60.03;100710.56;5034561;28;20140;-63
2022/04/22 02:07:12;;;;;;;12.88;11.43;;;;;;;11.67;60.28;100705.13;5032446;28;20041;-63
2022/04/22 02:09:37;;;;;;;11.30;10.20;;;;;;;11.49;61.42;100707.28;5030969;28;20038;-63
2022/04/22 02:12:06;;;;;;;13.45;11.23;;;;;;;11.44;61.36;100705.88;5032534;28;20033;-63
2022/04/22 02:14:33;;;;;;;13.48;10.82;;;;;;;11.50;61.00;100706.34;5031624;28;20033;-63
2022/04/22 02:16:59;;;;;;;12.48;11.18;;;;;;;11.58;60.77;100706.63;5034938;28;20120;-63
2022/04/22 02:19:25;;;;;;;14.55;11.07;;;;;;;11.59;60.98;100694.19;5031514;28;20152;-63
2022/04/22 02:21:54;;;;;;;12.50;11.20;;;;;;;11.57;61.05;100704.09;5031562;28;20083;-63
2022/04/22 02:24:19;;;;;;;15.00;10.85;;;;;;;11.48;61.73;100697.59;5031491;28;20061;-63
2022/04/22 02:29:30;;;;;;;15.75;11.93;;;;;;;11.41;61.76;100690.13;5032577;28;20048;-63
2022/04/22 02:31:55;;;;;;;13.45;11.00;;;;;;;11.28;61.99;100692.78;5033080;28;20026;-63
2022/04/22 02:34:22;;;;;;;13.77;11.75;;;;;;;11.35;61.71;100694.94;5031529;28;20106;-63
2022/04/22 02:36:48;;;;;;;13.73;11.68;;;;;;;11.48;61.71;100696.75;5032990;28;20439;-63
2022/04/22 02:39:14;;;;;;;12.93;11.57;;;;;;;11.31;62.96;100695.22;5047127;28;20449;-63
2022/04/22 02:47:08;;;;;;;12.88;11.45;;;;;;;11.35;62.45;100689.59;5032318;28;20048;-63
2022/04/22 02:49:36;;;;;;;15.68;12.18;;;;;;;11.34;62.46;100689.69;5045791;28;20025;-63
2022/04/22 02:52:02;;;;;;;16.83;12.20;;;;;;;11.38;62.66;100677.88;5031391;28;20400;-63
2022/04/22 02:54:30;;;;;;;12.82;11.18;;;;;;;11.25;62.79;100690.34;5031639;28;20501;-63
2022/04/22 02:56:57;;;;;;;13.55;12.13;;;;;;;11.34;62.53;100692.34;5031393;28;20090;-63
2022/04/22 02:59:25;;;;;;;14.52;11.98;;;;;;;11.26;62.77;100684.88;5032574;28;20088;-63
2022/04/22 03:01:53;;;;;;;12.88;11.57;;;;;;;11.27;62.91;100673.31;5031683;28;20033;-63
2022/04/22 03:04:19;;;;;;;13.65;11.98;;;;;;;11.25;63.05;100691.19;5047864;28;20447;-63
2022/04/22 03:06:46;;;;;;;15.23;12.55;;;;;;;11.29;62.95;100679.34;5030763;28;20034;-63
2022/04/22 03:09:12;;;;;;;15.98;12.52;;;;;;;11.23;62.98;100678.91;5032967;28;20068;-62
2022/04/22 03:11:37;;;;;;;14.38;11.65;;;;;;;11.26;62.93;100670.72;5030907;28;20079;-63
2022/04/22 03:14:06;;;;;;;14.88;11.68;;;;;;;11.09;63.49;100669.25;5030764;28;20103;-62
2022/04/22 03:16:32;;;;;;;13.95;12.00;;;;;;;11.00;63.97;100681.38;5030960;28;20030;-63
2022/04/22 03:18:59;;;;;;;16.95;12.95;;;;;;;11.04;63.62;100671.34;5031742;28;20540;-63
2022/04/22 03:21:24;;;;;;;16.13;12.73;;;;;;;11.01;63.77;100664.44;5031530;28;20033;-63
2022/04/22 03:23:50;;;;;;;15.15;12.23;;;;;;;11.13;63.15;100662.75;5030306;28;20040;-63
2022/04/22 03:26:16;;;;;;;13.98;12.05;;;;;;;11.00;63.47;100668.06;5029841;28;20026;-63
2022/04/22 03:28:41;;;;;;;16.80;13.18;;;;;;;10.97;63.76;100670.94;5031219;28;20029;-63
2022/04/22 03:31:07;;;;;;;18.70;13.20;;;;;;;10.97;63.96;100668.25;5046189;28;20037;-63
2022/04/22 03:33:32;;;;;;;15.40;13.05;;;;;;;11.01;63.86;100672.41;5029321;28;20036;-63
2022/04/22 03:35:58;;;;;;;14.15;12.13;;;;;;;10.96;64.03;100671.00;5030558;28;20117;-63
2022/04/22 03:38:24;;;;;;;15.80;13.45;;;;;;;10.89;64.47;100663.44;5030561;28;20029;-63
2022/04/22 03:40:52;;;;;;;18.70;14.18;;;;;;;10.80;64.25;100663.22;5048282;28;20025;-63
2022/04/22 03:43:19;;;;;;;16.98;12.73;;;;;;;10.82;64.12;100651.50;5030848;28;20113;-63
2022/04/22 03:45:44;;;;;;;20.40;13.85;;;;;;;10.89;64.38;100663.44;5031339;28;20029;-63
2022/04/22 03:48:11;;;;;;;15.02;13.38;;;;;;;10.72;64.96;100662.88;5032823;28;20108;-63
2022/04/22 03:50:38;;;;;;;16.52;14.13;;;;;;;10.82;64.39;100661.28;5032994;28;20037;-63
2022/04/22 03:53:04;;;;;;;18.77;13.98;;;;;;;10.82;64.64;100664.78;5029513;28;20119;-63
2022/04/22 03:55:30;;;;;;;15.95;14.13;;;;;;;10.69;65.06;100651.47;5031569;28;20037;-63
2022/04/22 03:58:11;;;;;;;18.52;15.10;;;;;;;10.71;65.22;100654.03;5030882;28;20396;-63
2022/04/22 04:00:48;;;;;;;16.75;14.32;;;;;;;10.76;64.81;100651.06;5031330;28;20172;-63
2022/04/22 04:03:18;;;;;;;17.55;14.50;;;;;;;10.66;65.08;100642.84;5028930;28;20465;-63
2022/04/22 04:05:48;;;;;;;16.75;14.95;;;;;;;10.76;65.12;100637.75;5028855;28;20075;-63
2022/04/22 04:08:14;;;;;;;18.20;14.50;;;;;;;10.61;65.96;100647.63;5030992;28;20040;-63
2022/04/22 04:16:09;;;;;;;18.55;15.45;;;;;;;10.69;65.63;100637.31;5030529;28;20048;-63
2022/04/22 04:18:37;;;;;;;18.85;16.15;;;;;;;10.62;65.70;100642.22;5028325;28;20046;-62
2022/04/22 04:23:49;;;;;;;18.00;14.77;;;;;;;10.57;66.27;100646.13;5029971;28;20043;-63
2022/04/22 04:26:17;;;;;;;17.17;15.38;;;;;;;10.56;66.14;100650.59;5046017;28;20030;-63
2022/04/22 04:28:44;;;;;;;20.70;16.48;;;;;;;10.62;66.04;100642.22;5029596;28;20083;-63
2022/04/22 04:31:13;;;;;;;20.23;15.57;;;;;;;10.52;66.13;100637.59;5030473;28;20029;-63
2022/04/22 04:33:40;;;;;;;17.65;15.27;;;;;;;10.54;66.61;100635.69;5029829;28;20029;-63
2022/04/22 04:36:10;;;;;;;17.75;15.82;;;;;;;10.45;66.66;100638.00;5030876;28;20068;-63
2022/04/22 04:38:37;;;;;;;20.00;16.98;;;;;;;10.38;66.80;100644.69;5034277;28;20120;-62
2022/04/22 04:41:03;;;;;;;22.75;17.25;;;;;;;10.35;67.15;100646.69;5032675;28;20033;-63
2022/04/22 04:43:29;;;;;;;20.38;16.25;;;;;;;10.36;67.33;100651.06;5035428;28;20017;-63
2022/04/22 04:45:54;;;;;;;23.15;17.00;;;;;;;10.37;67.54;100658.06;5032817;28;20519;-63
2022/04/22 04:48:22;;;;;;;20.20;16.60;;;;;;;10.30;67.81;100651.47;5038676;28;20021;-63
2022/04/22 04:50:51;;;;;;;22.20;17.63;;;;;;;10.38;67.43;100654.44;5034263;28;20024;-63
2022/04/22 04:53:19;;;;;;;19.33;16.70;;;;;;;10.43;67.33;100636.41;5033129;28;20029;-63
2022/04/22 04:55:46;;;;;;;22.38;16.52;;;;;;;10.39;67.44;100640.22;5033219;28;20038;-63
2022/04/22 04:58:11;;;;;;;21.80;17.30;;;;;;;10.38;68.10;100642.03;5033462;28;20069;-63
2022/04/22 05:00:37;;;;;;;18.67;16.67;;;;;;;10.30;67.92;100635.50;5050274;28;20060;-63
2022/04/22 05:03:03;;;;;;;23.05;17.45;;;;;;;10.23;68.09;100624.38;5032408;28;20033;-62
2022/04/22 05:05:29;;;;;;;19.45;17.10;;;;;;;10.38;67.75;100639.38;5031302;28;20033;-63
2022/04/22 05:08:00;;;;;;;22.65;18.35;;;;;;;10.47;67.67;100643.25;5033556;28;20040;-62
2022/04/22 05:10:30;;;;;;;19.17;16.92;;;;;;;10.40;67.61;100648.09;5032954;28;20033;-62
2022/04/22 05:12:57;;;;;;;20.00;16.83;;;;;;;10.37;67.99;100640.31;5035030;28;20041;-63
2022/04/22 05:15:24;;;;;;;22.08;17.05;;;;;;;10.31;68.28;100635.41;5034394;28;20041;-62
2022/04/22 05:17:54;;;;;;;19.98;17.83;;;;;;;10.38;68.11;100642.03;5048322;28;20033;-63
2022/04/22 05:20:21;;;;;;;21.67;17.17;;;;;;;10.44;68.39;100638.09;5031147;28;20120;-62
2022/04/22 05:22:46;;;;;;;20.67;17.75;;;;;;;10.37;68.64;100642.97;5048277;28;20026;-62
2022/04/22 05:25:15;;;;;;;20.23;17.58;;;;;;;10.39;68.81;100645.53;5048135;28;20404;-62
2022/04/22 05:27:41;;;;;;;22.05;18.48;;;;;;;10.37;68.55;100642.97;5032865;28;20033;-62
2022/04/22 05:32:55;;;;;;;22.30;16.95;;;;;;;10.31;69.41;100640.72;5037255;28;20167;-62
2022/04/22 05:35:23;;;;;;;21.80;17.88;;;;;;;10.28;69.67;100648.03;5032743;28;20124;-62
2022/04/22 05:37:57;;;;;;;25.50;19.17;;;;;;;10.44;69.48;100649.59;5051268;28;20437;-62
2022/04/22 05:40:25;;;;;;;24.38;18.60;;;;;;;10.52;68.80;100653.56;5047898;28;20030;-62
2022/04/22 05:42:53;;;;;;;22.60;18.27;;;;;;;10.53;69.19;100650.81;5033195;28;20336;-63
2022/04/22 05:45:19;;;;;;;22.13;18.20;;;;;;;10.57;69.44;100646.13;5048341;28;20033;-62
2022/04/22 05:47:45;;;;;;;28.33;18.52;;;;;;;10.60;69.33;100651.25;5031762;28;20029;-62
2022/04/22 05:50:12;;;;;;;22.55;18.75;;;;;;;10.63;69.66;100651.88;5032308;28;20037;-62
2022/04/22 05:52:38;;;;;;;23.75;18.95;;;;;;;10.61;69.17;100655.59;5033330;28;20504;-62
2022/04/22 05:55:07;;;;;;;22.85;19.27;;;;;;;10.74;69.30;100647.69;5031666;28;20026;-62
2022/04/22 05:57:36;;;;;;;24.02;20.17;;;;;;;10.84;68.89;100657.56;5049651;28;20034;-62
2022/04/22 06:00:04;;;;;;;26.83;19.98;;;;;;;10.91;69.11;100653.56;5032850;28;20072;-62
2022/04/22 06:02:32;;;;;;;26.98;19.65;;;;;;;11.04;68.93;100658.03;5032641;28;20021;-62
2022/04/22 06:04:58;;;;;;;26.25;18.92;;;;;;;11.08;68.88;100662.19;5046682;28;20029;-63
2022/04/22 06:07:26;;;;;;;24.83;20.90;;;;;;;11.01;69.35;100651.13;5047169;28;20027;-62
2022/04/22 06:12:35;;;;;;;25.65;20.67;;;;;;;11.16;68.78;100648.38;5033051;28;20045;-63
2022/04/22 06:15:02;;;;;;;24.45;20.17;;;;;;;11.18;68.84;100646.44;5032582;28;20041;-63
2022/04/22 06:17:29;;;;;;;23.10;20.60;;;;;;;11.34;68.61;100647.09;5033156;28;20026;-62
2022/04/22 06:19:55;;;;;;;24.90;21.38;;;;;;;11.39;68.64;100647.63;5033008;28;20013;-63
2022/04/22 06:22:20;;;;;;;28.55;20.58;;;;;;;11.55;68.35;100653.56;5047991;28;20493;-63
2022/04/22 06:24:48;;;;;;;26.17;20.17;;;;;;;11.58;67.66;100640.03;5033100;28;20032;-63
2022/04/22 06:27:38;;;;;;;25.23;21.73;;;;;;;11.77;67.34;100655.59;5031841;28;20413;-63
2022/04/22 06:30:19;;;;;;;25.85;21.42;;;;;;;11.76;67.86;100653.88;5031303;28;20056;-63
2022/04/22 06:32:47;;;;;;;24.23;21.13;;;;;;;11.74;67.96;100649.63;5032018;28;20022;-63
2022/04/22 06:35:14;;;;;;;24.58;21.63;;;;;;;11.78;67.61;100653.75;5031597;28;20103;-62
2022/04/22 06:37:42;;;;;;;25.00;21.33;;;;;;;11.85;67.34;100657.72;5048433;28;20106;-63
2022/04/22 06:45:48;;;;;;;26.60;22.65;;;;;;;11.93;67.59;100643.84;5034660;28;20500;-63
2022/04/22 06:48:29;;;;;;;25.58;21.40;;;;;;;12.02;67.02;100646.69;5029491;28;20056;-63
2022/04/22 06:50:56;;;;;;;27.77;22.23;;;;;;;12.12;66.57;100648.69;5030973;28;20017;-63
2022/04/22 06:53:22;;;;;;;25.52;21.42;;;;;;;12.28;67.12;100646.63;5029245;28;20032;-63
2022/04/22 06:55:48;;;;;;;24.88;21.23;;;;;;;12.43;66.41;100650.81;5046434;28;20472;-63
2022/04/22 06:58:16;;;;;;;27.73;23.00;;;;;;;12.43;66.07;100648.16;5030078;28;20102;-63
2022/04/22 07:00:43;;;;;;;22.63;19.98;;;;;;;12.59;65.78;100647.88;5031161;28;20021;-63
2022/04/22 07:03:10;;;;;;;24.60;21.80;;;;;;;12.54;65.22;100651.84;5030950;28;20021;-63
2022/04/22 07:05:37;;;;;;;25.27;20.83;;;;;;;12.57;64.76;100654.28;5028232;28;20028;-63
2022/04/22 07:08:04;;;;;;;27.55;21.75;;;;;;;12.67;64.79;100656.13;5029360;28;20033;-63
2022/04/22 07:10:31;;;;;;;25.13;20.77;;;;;;;12.80;64.44;100656.09;5031282;28;20017;-63
2022/04/22 07:12:58;;;;;;;28.13;21.60;;;;;;;12.78;64.29;100651.81;5030380;28;20041;-63
2022/04/22 07:15:24;;;;;;;26.30;21.88;;;;;;;12.88;63.92;100642.13;5046610;28;20472;-63
2022/04/22 07:17:50;;;;;;;25.52;21.52;;;;;;;12.92;64.16;100641.81;5028986;28;20404;-64
2022/04/22 07:20:16;;;;;;;23.90;21.33;;;;;;;13.01;63.94;100644.75;5030566;28;20045;-63
2022/04/22 07:22:42;;;;;;;25.17;21.25;;;;;;;13.04;63.19;100641.84;5046575;28;20032;-63
2022/04/22 07:25:09;;;;;;;26.70;20.92;;;;;;;12.92;63.25;100636.47;5029707;28;20124;-63
2022/04/22 07:27:40;;;;;;;23.88;21.27;;;;;;;12.88;64.43;100636.81;5029864;28;20100;-63
2022/04/22 07:30:08;;;;;;;25.17;20.67;;;;;;;12.85;64.86;100637.03;5031284;28;20068;-63
2022/04/22 07:32:41;;;;;;;23.95;21.20;;;;;;;12.89;64.82;100617.16;5030836;28;20029;-63
2022/04/22 07:35:13;;;;;;;24.63;20.60;;;;;;;13.17;63.86;100621.22;5030551;28;20079;-64
2022/04/22 07:37:53;;;;;;;25.52;20.25;;;;;;;13.40;63.06;100627.47;5029508;28;20392;-63
2022/04/22 07:40:22;;;;;;;21.63;19.42;;;;;;;13.48;62.27;100629.56;5028322;28;20033;-64
2022/04/22 07:48:23;;;;;;;21.60;19.38;;;;;;;13.40;61.93;100630.13;5028902;28;20060;-63
2022/04/22 07:50:50;;;;;;;21.77;19.38;;;;;;;13.40;61.63;100619.47;5031848;28;20099;-63
2022/04/22 07:53:19;;;;;;;22.83;18.80;;;;;;;13.47;61.45;100631.38;5030072;28;20033;-63
2022/04/22 07:55:45;;;;;;;23.05;19.45;;;;;;;13.32;61.73;100630.72;5033495;28;20021;-63
2022/04/22 07:58:13;;;;;;;22.95;20.35;;;;;;;13.24;61.67;100624.28;5029822;28;20029;-63
2022/04/22 08:00:40;;;;;;;22.02;19.70;;;;;;;13.15;61.99;100624.03;5045664;28;20033;-63
2022/04/22 08:03:08;;;;;;;23.13;19.48;;;;;;;13.21;62.71;100614.69;5029862;28;20034;-63
2022/04/22 08:05:35;;;;;;;21.35;19.17;;;;;;;13.45;61.96;100624.44;5044704;28;20033;-63
2022/04/22 08:08:01;;;;;;;24.20;18.00;;;;;;;13.60;61.82;100624.06;5032412;28;20021;-64
2022/04/22 08:10:29;;;;;;;20.63;18.58;;;;;;;13.69;60.92;100616.31;5032480;28;20115;-63
2022/04/22 08:12:54;;;;;;;20.77;18.60;;;;;;;13.70;60.99;100618.84;5064176;28;20119;-63
2022/04/22 08:15:21;;;;;;;20.70;18.23;;;;;;;13.75;60.74;100613.97;5049058;28;20057;-63
2022/04/22 08:17:47;;;;;;;19.83;17.83;;;;;;;13.77;61.45;100616.56;5049224;28;20048;-63
2022/04/22 08:20:13;;;;;;;20.63;17.92;;;;;;;13.66;61.12;100614.72;5031866;28;20384;-63
2022/04/22 08:22:44;;;;;;;19.38;17.13;;;;;;;13.57;60.71;100613.63;5032248;28;20107;-63
2022/04/22 08:25:11;;;;;;;20.95;18.60;;;;;;;13.49;61.25;100608.03;5049115;28;20523;-63
2022/04/22 08:27:36;;;;;;;20.30;18.10;;;;;;;13.54;62.09;100613.88;5035242;28;20481;-62
2022/04/22 08:30:02;;;;;;;21.55;18.35;;;;;;;13.50;61.66;100612.44;5049049;28;20045;-63
2022/04/22 08:32:28;;;;;;;20.17;17.98;;;;;;;13.50;61.37;100615.09;5033619;28;20029;-63
2022/04/22 08:34:53;;;;;;;20.67;18.48;;;;;;;13.45;62.23;100613.75;5048181;28;20025;-62
2022/04/22 08:37:19;;;;;;;20.40;18.40;;;;;;;13.45;62.38;100611.09;5034121;28;20038;-62
2022/04/22 08:39:47;;;;;;;20.27;18.10;;;;;;;13.48;61.81;100594.81;5034736;28;20029;-62
2022/04/22 08:42:14;;;;;;;20.85;18.65;;;;;;;13.57;61.51;100592.25;5050816;28;20091;-62
2022/04/22 08:44:40;;;;;;;19.65;17.60;;;;;;;13.72;61.22;100589.34;5033386;28;20024;-62
2022/04/22 08:50:12;;;;;;;22.58;18.27;;;;;;;14.07;60.20;100594.50;5034041;28;20091;-62
2022/04/22 08:52:39;;;;;;;19.17;16.98;;;;;;;14.27;59.36;100590.19;5040855;28;20112;-63
2022/04/22 08:55:09;;;;;;;19.88;17.83;;;;;;;14.57;58.99;100592.16;5036171;28;20555;-63
2022/04/22 08:57:34;;;;;;;20.58;18.10;;;;;;;14.76;58.83;100600.34;5033446;28;20065;-63
2022/04/22 09:00:01;;;;;;;19.88;17.88;;;;;;;14.69;58.03;100599.16;5034751;28;20029;-63
2022/04/22 09:02:27;;;;;;;20.70;18.05;;;;;;;14.84;57.86;100588.13;5032898;28;20032;-63
2022/04/22 09:04:53;;;;;;;21.30;17.35;;;;;;;14.87;57.99;100591.38;5036134;28;20366;-62
2022/04/22 09:07:21;;;;;;;18.20;16.42;;;;;;;14.95;59.25;100586.22;5030707;28;20285;-63
2022/04/22 09:09:49;;;;;;;21.27;17.27;;;;;;;15.24;57.32;100590.91;5036721;28;20025;-62
2022/04/22 09:12:19;;;;;;;18.85;16.92;;;;;;;15.28;55.63;100581.59;5028807;28;20270;-76
2022/04/22 09:14:49;;;;;;;19.42;17.52;;;;;;;15.38;56.33;100584.31;5046430;28;20057;-62
2022/04/22 09:17:34;;;;;;;22.95;17.15;;;;;;;15.50;56.19;100587.75;5031937;28;20029;-63
2022/04/22 09:20:03;;;;;;;17.77;15.98;;;;;;;15.42;55.60;100588.44;5047140;28;20476;-63
2022/04/22 09:22:36;;;;;;;17.33;14.05;;;;;;;15.32;54.17;100588.38;5032171;28;20048;-63
2022/04/22 09:25:05;;;;;;;18.27;15.32;;;;;;;15.21;54.31;100569.75;5035447;28;20480;-63
2022/04/22 09:27:35;;;;;;;17.02;15.43;;;;;;;15.31;54.56;100575.97;5048617;28;20425;-63
2022/04/22 09:30:03;;;;;;;16.35;14.68;;;;;;;15.42;53.82;100577.72;5032283;28;20366;-63
2022/04/22 09:32:33;;;;;;;15.82;14.23;;;;;;;15.43;53.46;100560.66;5032845;28;20092;-63
2022/04/22 09:35:11;;;;;;;16.38;14.77;;;;;;;15.58;54.76;100566.50;5031405;28;20037;-63
2022/04/22 09:43:45;;;;;;;17.13;15.15;;;;;;;15.19;54.77;100555.63;5032976;28;20064;-64
2022/04/22 09:46:30;;;;;;;15.98;14.38;;;;;;;15.09;55.16;100555.56;5032990;28;20112;-63
2022/04/22 09:48:56;;;;;;;17.33;15.52;;;;;;;15.00;55.52;100543.00;5032633;28;20091;-63
2022/04/22 09:51:31;;;;;;;16.77;14.95;;;;;;;14.94;55.85;100546.16;5033179;28;20059;-63
2022/04/22 09:54:05;;;;;;;16.75;15.10;;;;;;;15.14;55.30;100542.59;5048193;28;20459;-63
2022/04/22 09:56:33;;;;;;;19.02;13.88;;;;;;;15.30;54.28;100515.34;5032478;28;20072;-63
2022/04/22 09:59:19;;;;;;;16.20;14.65;;;;;;;15.48;54.96;100539.66;5032709;28;20025;-63
2022/04/22 10:01:45;;;;;;;17.40;15.63;;;;;;;15.39;54.06;100537.81;5031367;28;20091;-63
2022/04/22 10:04:11;;;;;;;15.95;14.25;;;;;;;15.40;54.47;100524.25;5032433;28;20476;-63
2022/04/22 10:06:38;;;;;;;15.63;13.90;;;;;;;15.41;54.02;100538.50;5047703;28;20409;-63
2022/04/22 10:09:04;;;;;;;15.23;13.73;;;;;;;15.22;52.50;100529.41;5031353;28;20025;-63
2022/04/22 10:11:32;;;;;;;13.38;12.00;;;;;;;15.06;52.40;100526.38;5032410;28;20091;-63
2022/04/22 10:14:00;;;;;;;14.27;12.93;;;;;;;14.89;53.01;100532.34;5032415;28;20049;-63
2022/04/22 10:16:27;;;;;;;13.55;12.18;;;;;;;14.82;52.80;100528.50;5032913;28;20076;-63
2022/04/22 10:18:53;;;;;;;15.07;13.48;;;;;;;14.63;52.98;100524.72;5031669;28;20056;-63
2022/04/22 10:21:20;;;;;;;15.73;13.70;;;;;;;14.53;53.72;100513.13;5032657;28;20029;-63
2022/04/22 10:23:51;;;;;;;15.20;13.73;;;;;;;14.60;54.04;100521.47;5032333;28;20389;-63
2022/04/22 10:26:16;;;;;;;16.13;14.00;;;;;;;14.68;54.09;100522.50;5047332;28;20056;-63
2022/04/22 10:28:45;;;;;;;15.07;13.57;;;;;;;14.77;54.52;100515.50;5032251;28;20106;-63
2022/04/22 10:31:12;;;;;;;14.43;13.00;;;;;;;14.98;53.40;100516.31;5032165;28;20056;-63
2022/04/22 10:33:43;;;;;;;16.98;14.57;;;;;;;15.14;53.75;100502.44;5045635;28;20034;-63
2022/04/22 10:36:18;;;;;;;14.88;13.48;;;;;;;15.52;52.81;100516.94;5031693;28;20032;-63
2022/04/22 10:38:48;;;;;;;15.00;12.98;;;;;;;15.62;51.45;100508.94;5031931;28;20021;-63
2022/04/22 10:41:19;;;;;;;16.50;14.25;;;;;;;15.53;51.46;100502.56;5031944;28;20025;-63
2022/04/22 10:49:19;;;;;;;15.52;13.95;;;;;;;15.26;52.76;100500.50;5031683;28;19920;-63
2022/04/22 10:52:03;;;;;;;14.98;13.45;;;;;;;15.34;52.54;100505.19;5047128;28;20060;-63
2022/04/22 10:54:54;;;;;;;15.48;13.77;;;;;;;15.40;51.56;100504.66;5031746;28;20421;-63
2022/04/22 10:57:24;;;;;;;17.90;12.70;;;;;;;15.46;51.32;100501.41;5031828;28;20677;-63
2022/04/22 11:00:14;;;;;;;17.48;13.98;;;;;;;15.47;50.78;100502.25;5031755;28;20472;-63
2022/04/22 11:02:41;;;;;;;15.13;13.52;;;;;;;15.44;50.15;100493.53;5033381;28;20930;-63
2022/04/22 11:05:25;;;;;;;14.38;12.88;;;;;;;15.53;49.97;100497.22;5035907;28;20029;-64
2022/04/22 11:07:50;;;;;;;20.13;13.75;;;;;;;15.44;49.86;100490.84;5031045;28;20044;-63
2022/04/22 11:10:15;;;;;;;15.00;13.45;;;;;;;15.45;50.56;100495.22;5029901;28;20033;-63
2022/04/22 11:12:55;;;;;;;16.67;12.57;;;;;;;15.53;51.43;100491.84;5030543;28;20141;-63
2022/04/22 11:15:39;;;;;;;16.90;13.98;;;;;;;15.54;51.15;100492.69;5032773;28;20033;-63
2022/04/22 11:18:05;;;;;;;18.90;13.13;;;;;;;15.46;50.88;100479.97;5046450;28;20032;-63
2022/04/22 11:20:31;;;;;;;20.85;14.68;;;;;;;15.40;50.71;100486.72;5030065;28;20036;-63
2022/04/22 11:22:56;;;;;;;15.98;14.02;;;;;;;15.13;51.16;100460.56;5051972;28;20108;-63
2022/04/22 11:25:26;;;;;;;15.43;13.88;;;;;;;15.26;51.30;100479.06;5046296;28;20037;-63
2022/04/22 11:27:56;;;;;;;19.65;15.43;;;;;;;15.16;52.54;100481.72;5030822;28;20033;-63
2022/04/22 11:30:22;;;;;;;14.82;13.43;;;;;;;15.16;52.49;100475.53;5032875;28;20080;-63
2022/04/22 11:32:51;;;;;;;16.38;14.68;;;;;;;15.12;51.78;100483.00;5032659;28;20547;-63
2022/04/22 11:35:20;;;;;;;16.77;14.10;;;;;;;15.05;52.00;100483.66;5043027;28;20048;-63
2022/04/22 11:38:00;;;;;;;15.68;14.05;;;;;;;14.95;52.11;100492.50;5031325;28;20029;-63
2022/04/22 11:40:26;;;;;;;16.65;14.80;;;;;;;14.82;53.21;100488.31;5030457;28;20400;-63
2022/04/22 11:42:54;;;;;;;18.40;15.05;;;;;;;14.86;52.48;100484.41;5029445;28;20108;-63
2022/04/22 11:45:20;;;;;;;16.83;14.07;;;;;;;14.92;51.90;100478.53;5033555;28;20112;-63
2022/04/22 11:47:45;;;;;;;15.82;13.95;;;;;;;15.04;51.57;100474.78;5032078;28;20171;-63
2022/04/22 11:50:20;;;;;;;17.90;14.60;;;;;;;15.14;51.53;100474.78;5028449;28;20118;-63
2022/04/22 11:52:52;;;;;;;16.38;14.35;;;;;;;15.27;51.43;100479.94;5035024;28;20056;-63
2022/04/22 11:55:17;;;;;;;15.75;14.15;;;;;;;15.34;51.27;100473.88;5030570;28;20035;-63
2022/04/22 11:57:42;;;;;;;17.48;14.43;;;;;;;15.37;50.68;100462.88;5031362;28;20037;-63
2022/04/22 12:05:52;;;;;;;16.27;14.50;;;;;;;15.87;50.41;100464.69;5030332;28;20507;-64
2022/04/22 12:08:19;;;;;;;19.63;15.80;;;;;;;16.12;49.73;100461.44;5047264;28;20037;-63
2022/04/22 12:10:47;;;;;;;15.32;13.73;;;;;;;16.20;49.20;100457.19;5030534;28;20021;-63
2022/04/22 12:13:16;;;;;;;16.17;14.48;;;;;;;16.33;50.32;100455.06;5030156;28;20089;-63